West Leechburg, Pennsylvania
Current Conditions -  °F | °C
As of 9:35 PM on Thursday 20 Nov 2014 (Local Time) from KBTP Reporting Station
Clear Clear  
Wind Chill:   Ceiling: Unl
Heat Index: 21°   Visibility: 10mi
Dew Point: 10°   Wind: 12mph
Humidity: 63%   Direction: 240°WSW
Pressure: 30.09"   Gusts: 21mph
Location:  40.669°N, 79.6041°W
Report Text: KBTP 210235Z AUTO 24010G18KT 10SM CLR M06/M12 A3009 RMK AO1
Loading
Personal Weather Stations






























Interactive Weather Map New forecast layout! Learn more

10-Day Weather Forecast

Advertisements
Track Severe Weather on mobile